Newark On Trent, United Kingdom
Current Conditions -  °F | °C
As of 4:50 AM on Sunday 26 Oct 2014 (Local Time) from EGYD Reporting Station
Few Clouds Few Clouds  
Wind Chill: 52°   Ceiling: Unl
Heat Index: 52°   Visibility: 6mi
Dew Point: 48°   Wind: 13mph
Humidity: 88%   Direction: 200°SSW
Pressure: 30.03"   Gusts: NA
Location:  53.07°N, 0.81°W
Report Text: EGYD 260350Z AUTO 20011KT 9999 // FEW035/// 11/09 Q1017
Loading
Personal Weather Stations






























Interactive Weather Map
Tropical Storm Tracking
New forecast layout! Learn more

10-Day Weather Forecast

Advertisements
Track Severe Weather on mobile